Time;durP1;ratioP1;P1;durP2;ratioP2;P2;SDS_P1;SDS_P2;PMS_P1;PMS_P2;Temp;Humidity;BMP_temperature;BMP_pressure;BME280_temperature;BME280_humidity;BME280_pressure;Samples;Min_cycle;Max_cycle;Signal;HPM_P1;HPM_P2
2023/12/01 00:01:36;;;;;;;;;;;1.00;99.90;;;;;;5114660;27;19924;-81
2023/12/01 00:04:02;;;;;;;;;;;1.00;99.90;;;;;;5113606;28;19924;-81
2023/12/01 00:06:28;;;;;;;;;;;1.00;99.90;;;;;;5113957;27;20429;-82
2023/12/01 00:08:53;;;;;;;;;;;1.00;99.90;;;;;;5112564;27;19935;-83
2023/12/01 00:11:19;;;;;;;;;;;1.00;99.90;;;;;;5113563;28;19930;-82
2023/12/01 00:13:45;;;;;;;;;;;1.00;99.90;;;;;;5114356;28;20068;-82
2023/12/01 00:16:11;;;;;;;;;;;0.90;99.90;;;;;;5091108;28;20015;-81
2023/12/01 00:18:36;;;;;;;;;;;1.00;99.90;;;;;;5114395;27;19924;-82
2023/12/01 00:21:02;;;;;;;;;;;0.90;99.90;;;;;;5116774;27;19931;-82
2023/12/01 00:23:29;;;;;;;;;;;0.90;99.90;;;;;;5116123;27;19923;-82
2023/12/01 00:25:54;;;;;;;;;;;1.00;99.90;;;;;;5112003;27;19932;-82
2023/12/01 00:28:20;;;;;;;;;;;0.90;99.90;;;;;;5115186;27;19928;-82
2023/12/01 00:30:45;;;;;;;;;;;0.90;99.90;;;;;;5116682;27;20370;-82
2023/12/01 00:33:11;;;;;;;;;;;0.90;99.90;;;;;;5114797;27;19992;-82
2023/12/01 00:35:36;;;;;;;;;;;1.00;99.90;;;;;;5114110;27;19994;-82
2023/12/01 00:38:02;;;;;;;;;;;1.00;99.90;;;;;;5114570;27;19932;-82
2023/12/01 00:40:28;;;;;;;;;;;1.00;99.90;;;;;;5114254;27;19975;-82
2023/12/01 00:42:53;;;;;;;;;;;0.90;99.90;;;;;;5114145;27;19927;-85
2023/12/01 00:45:19;;;;;;;;;;;0.90;99.90;;;;;;5117959;27;20374;-82
2023/12/01 00:47:45;;;;;;;;;;;0.90;99.90;;;;;;5112144;27;19935;-85
2023/12/01 00:50:10;;;;;;;;;;;1.00;99.90;;;;;;5112697;27;20461;-83
2023/12/01 00:52:36;;;;;;;;;;;0.90;99.90;;;;;;5115779;27;19934;-82
2023/12/01 00:55:01;;;;;;;;;;;0.80;99.90;;;;;;5114123;27;20378;-82
2023/12/01 00:57:27;;;;;;;;;;;0.90;99.90;;;;;;5116333;27;19932;-84
2023/12/01 00:59:53;;;;;;;;;;;0.80;99.90;;;;;;5121255;27;20003;-85
2023/12/01 01:02:18;;;;;;;;;;;0.80;99.90;;;;;;5124539;27;19924;-82
2023/12/01 01:04:44;;;;;;;;;;;0.80;99.90;;;;;;5117810;27;19978;-82
2023/12/01 01:07:09;;;;;;;;;;;0.80;99.90;;;;;;5111426;27;19930;-82
2023/12/01 01:09:35;;;;;;;;;;;0.80;99.90;;;;;;5106590;28;19934;-82
2023/12/01 01:12:01;;;;;;;;;;;0.80;99.90;;;;;;5112265;27;20737;-84
2023/12/01 01:14:27;;;;;;;;;;;0.80;99.90;;;;;;5110225;28;20385;-81
2023/12/01 01:16:53;;;;;;;;;;;0.80;99.90;;;;;;5110411;27;19923;-82
2023/12/01 01:19:18;;;;;;;;;;;0.80;99.90;;;;;;5108989;28;20363;-82
2023/12/01 01:21:44;;;;;;;;;;;0.80;99.90;;;;;;5113267;28;20367;-82
2023/12/01 01:24:09;;;;;;;;;;;0.80;99.90;;;;;;5112906;28;19999;-82
2023/12/01 01:26:35;;;;;;;;;;;0.80;99.90;;;;;;5113197;28;19928;-84
2023/12/01 01:29:00;;;;;;;;;;;0.70;99.90;;;;;;5113289;28;19931;-82
2023/12/01 01:31:26;;;;;;;;;;;0.80;99.90;;;;;;5112598;27;19924;-82
2023/12/01 01:33:51;;;;;;;;;;;0.70;99.90;;;;;;5109602;28;19924;-82
2023/12/01 01:36:18;;;;;;;;;;;0.60;99.90;;;;;;5112678;28;19923;-82
2023/12/01 01:38:43;;;;;;;;;;;0.60;99.90;;;;;;5112514;28;20374;-82
2023/12/01 01:41:09;;;;;;;;;;;0.60;99.90;;;;;;5111951;28;19930;-81
2023/12/01 01:43:34;;;;;;;;;;;0.60;99.90;;;;;;5113130;28;19971;-81
2023/12/01 01:46:00;;;;;;;;;;;0.50;99.90;;;;;;5113122;28;19959;-82
2023/12/01 01:48:26;;;;;;;;;;;0.50;99.90;;;;;;5112621;28;19924;-82
2023/12/01 01:50:51;;;;;;;;;;;0.60;99.90;;;;;;5115748;28;20370;-82
2023/12/01 01:53:17;;;;;;;;;;;0.50;99.90;;;;;;5117807;27;19923;-82
2023/12/01 01:55:43;;;;;;;;;;;0.50;99.90;;;;;;5117229;27;19924;-86
2023/12/01 01:58:10;;;;;;;;;;;0.40;99.90;;;;;;5119595;27;20010;-82
2023/12/01 02:00:36;;;;;;;;;;;0.50;99.90;;;;;;5115915;27;19923;-82
2023/12/01 02:03:02;;;;;;;;;;;0.50;99.90;;;;;;5113487;27;19938;-83
2023/12/01 02:05:28;;;;;;;;;;;0.50;99.90;;;;;;5115249;27;19931;-82
2023/12/01 02:07:53;;;;;;;;;;;0.50;99.90;;;;;;5116503;27;20282;-83
2023/12/01 02:10:19;;;;;;;;;;;0.50;99.90;;;;;;5119076;27;19930;-82
2023/12/01 02:12:45;;;;;;;;;;;0.50;99.90;;;;;;5115768;27;19969;-82
2023/12/01 02:15:10;;;;;;;;;;;0.50;99.90;;;;;;5104923;28;19931;-82
2023/12/01 02:17:39;;;;;;;;;;;0.50;99.90;;;;;;5118216;27;19932;-82
2023/12/01 02:20:05;;;;;;;;;;;0.50;99.90;;;;;;5117241;27;19982;-81
2023/12/01 02:22:31;;;;;;;;;;;0.50;99.90;;;;;;5113771;27;19927;-81
2023/12/01 02:24:57;;;;;;;;;;;0.60;99.90;;;;;;5119773;27;19934;-87
2023/12/01 02:27:22;;;;;;;;;;;0.40;99.90;;;;;;5113726;27;19938;-83
2023/12/01 02:29:48;;;;;;;;;;;0.50;99.90;;;;;;5116299;27;19976;-82
2023/12/01 02:32:13;;;;;;;;;;;0.30;99.90;;;;;;5117022;27;20374;-82
2023/12/01 02:34:41;;;;;;;;;;;0.30;99.90;;;;;;5118065;27;19992;-81
2023/12/01 02:37:06;;;;;;;;;;;0.40;99.90;;;;;;5116956;27;20019;-82
2023/12/01 02:39:36;;;;;;;;;;;0.20;99.90;;;;;;5117753;27;20022;-84
2023/12/01 02:42:02;;;;;;;;;;;0.20;99.90;;;;;;5120381;27;19963;-86
2023/12/01 02:44:28;;;;;;;;;;;0.10;99.90;;;;;;5118629;27;19998;-86
2023/12/01 02:46:53;;;;;;;;;;;0.10;99.90;;;;;;5115486;27;20244;-83
2023/12/01 02:49:19;;;;;;;;;;;0.10;99.90;;;;;;5116947;27;19931;-82
2023/12/01 02:51:44;;;;;;;;;;;0.10;99.90;;;;;;5119554;27;20011;-80
2023/12/01 02:54:10;;;;;;;;;;;0.10;99.90;;;;;;5120271;27;20362;-82
2023/12/01 02:56:36;;;;;;;;;;;0.10;99.90;;;;;;5116720;27;19928;-82
2023/12/01 02:59:01;;;;;;;;;;;0.00;99.90;;;;;;5110169;27;19959;-81
2023/12/01 03:01:27;;;;;;;;;;;-0.10;99.90;;;;;;5117933;27;19924;-81
2023/12/01 03:03:52;;;;;;;;;;;-0.20;99.90;;;;;;5119856;27;20274;-81
2023/12/01 03:06:18;;;;;;;;;;;-0.20;99.90;;;;;;5121055;27;19934;-82
2023/12/01 03:08:46;;;;;;;;;;;-0.30;99.90;;;;;;5115337;27;19931;-84
2023/12/01 03:11:11;;;;;;;;;;;-0.40;99.90;;;;;;5106300;27;19958;-82
2023/12/01 03:13:37;;;;;;;;;;;-0.30;99.90;;;;;;5112171;27;20281;-82
2023/12/01 03:16:02;;;;;;;;;;;-0.40;99.90;;;;;;5101789;27;19924;-81
2023/12/01 03:18:28;;;;;;;;;;;-0.50;99.90;;;;;;5098871;28;19924;-81
2023/12/01 03:20:54;;;;;;;;;;;-0.40;99.90;;;;;;5104244;28;19924;-82
2023/12/01 03:23:19;;;;;;;;;;;-0.50;99.90;;;;;;5109320;27;19924;-83
2023/12/01 03:25:45;;;;;;;;;;;-0.60;99.90;;;;;;5110982;28;19924;-82
2023/12/01 03:28:10;;;;;;;;;;;-0.60;99.90;;;;;;5114355;27;19935;-82
2023/12/01 03:30:36;;;;;;;;;;;-0.60;99.90;;;;;;5115483;28;19931;-82
2023/12/01 03:33:02;;;;;;;;;;;-0.60;99.90;;;;;;5113268;28;20072;-83
2023/12/01 03:35:27;;;;;;;;;;;-0.60;99.90;;;;;;5114516;27;19924;-82
2023/12/01 03:37:57;;;;;;;;;;;-0.50;99.90;;;;;;5111396;27;20291;-82
2023/12/01 03:40:23;;;;;;;;;;;-0.60;99.90;;;;;;5114938;28;19930;-83
2023/12/01 03:42:49;;;;;;;;;;;-0.50;99.90;;;;;;5115196;27;19979;-82
2023/12/01 03:45:15;;;;;;;;;;;-0.60;99.90;;;;;;5113499;27;20029;-82
2023/12/01 03:47:43;;;;;;;;;;;-0.60;99.90;;;;;;5115135;28;19927;-82
2023/12/01 03:50:12;;;;;;;;;;;-0.40;99.90;;;;;;5114451;28;19931;-83
2023/12/01 03:52:38;;;;;;;;;;;-0.50;99.90;;;;;;5114774;28;19931;-82
2023/12/01 03:55:04;;;;;;;;;;;-0.60;99.90;;;;;;5114624;28;19924;-83
2023/12/01 03:57:29;;;;;;;;;;;-0.70;99.90;;;;;;5112332;28;20367;-81
2023/12/01 03:59:55;;;;;;;;;;;-0.60;99.90;;;;;;5118940;27;19927;-82
2023/12/01 04:02:24;;;;;;;;;;;-0.70;99.90;;;;;;5114250;28;20031;-82
2023/12/01 04:04:49;;;;;;;;;;;-0.80;99.90;;;;;;5114778;28;19930;-82
2023/12/01 04:07:15;;;;;;;;;;;-0.80;99.90;;;;;;5114912;27;20014;-82
2023/12/01 04:09:41;;;;;;;;;;;-0.90;99.90;;;;;;5115355;27;20378;-82
2023/12/01 04:12:07;;;;;;;;;;;-0.90;99.90;;;;;;5112779;28;19924;-82
2023/12/01 04:14:32;;;;;;;;;;;-0.90;99.90;;;;;;5114723;28;20329;-82
2023/12/01 04:17:08;;;;;;;;;;;-0.90;99.90;;;;;;5111613;27;19978;-82
2023/12/01 04:19:38;;;;;;;;;;;-0.90;99.90;;;;;;5111117;28;19923;-79
2023/12/01 04:22:06;;;;;;;;;;;-0.90;99.90;;;;;;5117847;27;19931;-82
2023/12/01 04:24:33;;;;;;;;;;;-0.90;99.90;;;;;;5122069;27;20018;-77
2023/12/01 04:27:00;;;;;;;;;;;-0.90;99.90;;;;;;5123396;27;19927;-80
2023/12/01 04:29:26;;;;;;;;;;;-0.90;99.90;;;;;;5117193;27;19931;-82
2023/12/01 04:31:52;;;;;;;;;;;-0.90;99.90;;;;;;5116807;27;20412;-81
2023/12/01 04:34:20;;;;;;;;;;;-1.00;99.90;;;;;;5117374;27;19923;-80
2023/12/01 04:36:46;;;;;;;;;;;-0.80;99.90;;;;;;5111797;27;19996;-86
2023/12/01 04:39:14;;;;;;;;;;;-0.90;99.90;;;;;;5112251;27;19978;-80
2023/12/01 04:41:39;;;;;;;;;;;-0.90;99.90;;;;;;5108737;27;19949;-82
2023/12/01 04:44:05;;;;;;;;;;;-0.90;99.90;;;;;;5110268;27;20446;-82
2023/12/01 04:46:30;;;;;;;;;;;-1.00;99.90;;;;;;5114454;27;20149;-84
2023/12/01 04:48:56;;;;;;;;;;;-1.10;99.90;;;;;;5111200;27;20382;-82
2023/12/01 04:51:22;;;;;;;;;;;-1.10;99.90;;;;;;5116823;27;20077;-84
2023/12/01 04:53:48;;;;;;;;;;;-1.10;99.90;;;;;;5112768;27;19935;-83
2023/12/01 04:56:13;;;;;;;;;;;-1.00;99.90;;;;;;5113096;27;19923;-83
2023/12/01 04:58:39;;;;;;;;;;;-1.10;99.90;;;;;;5113235;27;20290;-84
2023/12/01 05:01:05;;;;;;;;;;;-1.00;99.90;;;;;;5115634;27;20286;-82
2023/12/01 05:03:30;;;;;;;;;;;-1.00;99.90;;;;;;5116333;27;19932;-82
2023/12/01 05:05:58;;;;;;;;;;;-1.10;99.90;;;;;;5113724;27;20374;-82
2023/12/01 05:08:23;;;;;;;;;;;-1.10;99.90;;;;;;5113513;27;19924;-82
2023/12/01 05:10:50;;;;;;;;;;;-1.00;99.90;;;;;;5113401;27;20294;-81
2023/12/01 05:13:15;;;;;;;;;;;-1.00;99.90;;;;;;5116140;27;19934;-81
2023/12/01 05:15:41;;;;;;;;;;;-1.00;99.90;;;;;;5111440;27;19931;-81
2023/12/01 05:18:10;;;;;;;;;;;-0.90;99.90;;;;;;5113166;28;20018;-81
2023/12/01 05:20:35;;;;;;;;;;;-1.00;99.90;;;;;;5112253;27;19924;-81
2023/12/01 05:23:05;;;;;;;;;;;-1.10;99.90;;;;;;5112878;28;19927;-82
2023/12/01 05:25:33;;;;;;;;;;;-1.10;99.90;;;;;;5113334;28;19923;-81
2023/12/01 05:28:00;;;;;;;;;;;-1.30;99.90;;;;;;5095106;28;19924;-81
2023/12/01 05:30:26;;;;;;;;;;;-1.40;99.90;;;;;;5110296;28;19968;-82
2023/12/01 05:32:53;;;;;;;;;;;-1.50;99.90;;;;;;5107626;27;19928;-87
2023/12/01 05:35:19;;;;;;;;;;;-1.60;99.90;;;;;;5111475;28;20010;-81
2023/12/01 05:37:47;;;;;;;;;;;-1.70;99.90;;;;;;5112990;28;19924;-78
2023/12/01 05:40:14;;;;;;;;;;;-1.70;99.90;;;;;;5110340;28;19985;-83
2023/12/01 05:42:41;;;;;;;;;;;-1.70;99.90;;;;;;5103549;28;19977;-82
2023/12/01 05:45:11;;;;;;;;;;;-1.90;99.90;;;;;;5111951;28;20358;-85
2023/12/01 05:47:42;;;;;;;;;;;-1.90;99.90;;;;;;5111561;28;20366;-82
2023/12/01 05:50:27;;;;;;;;;;;-2.00;99.90;;;;;;5112626;28;19932;-85
2023/12/01 05:52:53;;;;;;;;;;;-2.00;99.90;;;;;;5112812;28;20394;-82
2023/12/01 05:55:20;;;;;;;;;;;-2.00;99.90;;;;;;5113130;28;19993;-82
2023/12/01 05:57:46;;;;;;;;;;;-2.00;99.90;;;;;;5113335;27;19923;-82
2023/12/01 06:00:15;;;;;;;;;;;-2.10;99.90;;;;;;5130833;27;20061;-88
2023/12/01 06:02:48;;;;;;;;;;;-2.10;99.90;;;;;;5114906;28;20006;-83
2023/12/01 06:05:15;;;;;;;;;;;-2.10;99.90;;;;;;5112021;28;19936;-86
2023/12/01 06:07:42;;;;;;;;;;;-2.20;99.90;;;;;;5129270;27;19946;-84
2023/12/01 06:10:08;;;;;;;;;;;-2.20;99.90;;;;;;5113454;28;19936;-81
2023/12/01 06:12:33;;;;;;;;;;;-2.20;99.90;;;;;;5109662;28;19930;-82
2023/12/01 06:14:59;;;;;;;;;;;-2.30;99.90;;;;;;5113143;28;19923;-86
2023/12/01 06:17:25;;;;;;;;;;;-2.40;99.90;;;;;;5098083;28;19923;-82
2023/12/01 06:19:51;;;;;;;;;;;-2.40;99.90;;;;;;5110630;28;19923;-85
2023/12/01 06:22:16;;;;;;;;;;;-2.40;99.90;;;;;;5131248;27;19923;-84
2023/12/01 06:24:42;;;;;;;;;;;-2.50;99.90;;;;;;5108932;28;19968;-83
2023/12/01 06:27:08;;;;;;;;;;;-2.40;99.90;;;;;;5101672;28;20381;-83
2023/12/01 06:29:34;;;;;;;;;;;-2.50;99.90;;;;;;5112081;28;19927;-84
2023/12/01 06:32:00;;;;;;;;;;;-2.50;99.90;;;;;;5110438;28;19928;-83
2023/12/01 06:34:26;;;;;;;;;;;-2.50;99.90;;;;;;5114320;28;19924;-82
2023/12/01 06:36:51;;;;;;;;;;;-2.30;99.90;;;;;;5112055;28;19979;-89
2023/12/01 06:39:17;;;;;;;;;;;-2.40;99.90;;;;;;5130909;27;19924;-83
2023/12/01 06:41:43;;;;;;;;;;;-2.40;99.90;;;;;;5114335;28;19981;-82
2023/12/01 06:44:09;;;;;;;;;;;-2.50;99.90;;;;;;5092043;28;20302;-83
2023/12/01 06:46:35;;;;;;;;;;;-2.50;99.90;;;;;;5109935;28;20010;-82
2023/12/01 06:49:00;;;;;;;;;;;-2.50;99.90;;;;;;5115928;28;20014;-82
2023/12/01 06:51:26;;;;;;;;;;;-2.50;99.90;;;;;;5116123;28;19927;-82
2023/12/01 06:53:52;;;;;;;;;;;-2.60;99.90;;;;;;5115644;28;19967;-82
2023/12/01 06:56:17;;;;;;;;;;;-2.60;99.90;;;;;;5108844;28;20439;-82
2023/12/01 06:58:43;;;;;;;;;;;-2.60;99.90;;;;;;5112817;28;19923;-80
2023/12/01 07:01:18;;;;;;;;;;;-2.60;99.90;;;;;;5118677;27;19928;-81
2023/12/01 07:03:47;;;;;;;;;;;-2.70;99.90;;;;;;5116763;27;20511;-81
2023/12/01 07:06:13;;;;;;;;;;;-2.60;99.90;;;;;;5117435;27;19939;-84
2023/12/01 07:08:38;;;;;;;;;;;-2.70;99.90;;;;;;5110950;27;19930;-82
2023/12/01 07:11:04;;;;;;;;;;;-2.70;99.90;;;;;;5109142;27;19924;-82
2023/12/01 07:13:30;;;;;;;;;;;-2.80;99.90;;;;;;5117810;27;19939;-81
2023/12/01 07:15:56;;;;;;;;;;;-2.80;99.90;;;;;;5111767;27;20282;-82
2023/12/01 07:18:23;;;;;;;;;;;-2.80;99.90;;;;;;5116020;27;19950;-81
2023/12/01 07:20:48;;;;;;;;;;;-2.90;99.90;;;;;;5117718;27;19924;-81
2023/12/01 07:23:14;;;;;;;;;;;-2.90;99.90;;;;;;5117905;27;19927;-81
2023/12/01 07:25:40;;;;;;;;;;;-2.90;99.90;;;;;;5116948;27;19970;-82
2023/12/01 07:28:06;;;;;;;;;;;-2.90;99.90;;;;;;5102604;28;19924;-82
2023/12/01 07:30:32;;;;;;;;;;;-2.90;99.90;;;;;;5103659;28;20317;-81
2023/12/01 07:32:59;;;;;;;;;;;-2.90;99.90;;;;;;5114740;28;20421;-82
2023/12/01 07:35:24;;;;;;;;;;;-2.70;99.90;;;;;;5115484;28;19923;-81
2023/12/01 07:37:52;;;;;;;;;;;-2.90;99.90;;;;;;5112728;28;20397;-81
2023/12/01 07:40:19;;;;;;;;;;;-2.90;99.90;;;;;;5111027;27;19924;-82
2023/12/01 07:42:45;;;;;;;;;;;-2.90;99.90;;;;;;5114660;27;19971;-85
2023/12/01 07:45:13;;;;;;;;;;;-3.00;99.90;;;;;;5117898;27;19934;-82
2023/12/01 07:47:38;;;;;;;;;;;-3.00;99.90;;;;;;5120145;27;19927;-85
2023/12/01 07:50:04;;;;;;;;;;;-2.80;99.90;;;;;;5119546;27;20685;-80
2023/12/01 07:52:32;;;;;;;;;;;-3.00;99.90;;;;;;5118575;27;19976;-82
2023/12/01 07:54:58;;;;;;;;;;;-3.00;99.90;;;;;;5119114;27;20281;-82
2023/12/01 07:57:23;;;;;;;;;;;-2.90;99.90;;;;;;5116237;27;19924;-81
2023/12/01 07:59:49;;;;;;;;;;;-2.80;99.90;;;;;;5117279;27;19932;-82
2023/12/01 08:02:15;;;;;;;;;;;-2.90;99.90;;;;;;5113758;27;20267;-85
2023/12/01 08:04:40;;;;;;;;;;;-2.80;99.90;;;;;;5117097;27;19934;-82
2023/12/01 08:07:07;;;;;;;;;;;-2.90;99.90;;;;;;5119583;27;19976;-84
2023/12/01 08:09:33;;;;;;;;;;;-2.90;99.90;;;;;;5109583;27;19924;-83
2023/12/01 08:11:59;;;;;;;;;;;-2.80;99.90;;;;;;5102399;28;19993;-83
2023/12/01 08:14:25;;;;;;;;;;;-2.80;99.90;;;;;;5111060;28;19965;-82
2023/12/01 08:16:51;;;;;;;;;;;-2.80;99.90;;;;;;5096640;28;19924;-83
2023/12/01 08:19:17;;;;;;;;;;;-2.70;99.90;;;;;;5113729;28;19924;-83
2023/12/01 08:21:43;;;;;;;;;;;-2.50;99.90;;;;;;5105856;28;19924;-83
2023/12/01 08:24:10;;;;;;;;;;;-2.60;99.90;;;;;;5106896;28;20388;-91
2023/12/01 08:26:36;;;;;;;;;;;-2.50;99.90;;;;;;5129987;27;19928;-84
2023/12/01 08:29:02;;;;;;;;;;;-2.40;99.90;;;;;;5114437;28;20010;-83
2023/12/01 08:31:28;;;;;;;;;;;-2.50;99.90;;;;;;5115738;28;19931;-83
2023/12/01 08:33:53;;;;;;;;;;;-2.40;99.90;;;;;;5117597;28;19924;-82
2023/12/01 08:36:19;;;;;;;;;;;-2.40;99.90;;;;;;5116423;27;19974;-82
2023/12/01 08:38:44;;;;;;;;;;;-2.30;99.90;;;;;;5113506;27;19924;-82
2023/12/01 08:41:10;;;;;;;;;;;-2.30;99.90;;;;;;5116469;27;20819;-83
2023/12/01 08:43:36;;;;;;;;;;;-2.30;99.90;;;;;;5135507;27;19924;-82
2023/12/01 08:46:02;;;;;;;;;;;-2.30;99.90;;;;;;5112087;27;19986;-82
2023/12/01 08:48:28;;;;;;;;;;;-2.20;99.90;;;;;;5117523;27;19924;-82
2023/12/01 08:50:53;;;;;;;;;;;-2.20;99.90;;;;;;5111743;27;19947;-87
2023/12/01 08:53:22;;;;;;;;;;;-2.10;99.90;;;;;;5110148;27;20017;-82
2023/12/01 08:55:50;;;;;;;;;;;-1.90;99.90;;;;;;5113961;27;20271;-81
2023/12/01 08:58:17;;;;;;;;;;;-1.80;99.90;;;;;;5114035;28;19931;-82
2023/12/01 09:00:43;;;;;;;;;;;-1.60;99.90;;;;;;5113122;28;19946;-81
2023/12/01 09:03:09;;;;;;;;;;;-1.60;99.90;;;;;;5113057;28;20371;-81
2023/12/01 09:05:34;;;;;;;;;;;-1.50;99.90;;;;;;5113319;28;20362;-82
2023/12/01 09:08:04;;;;;;;;;;;-1.50;99.90;;;;;;5093440;28;20344;-82
2023/12/01 09:10:30;;;;;;;;;;;-1.50;99.90;;;;;;5105954;28;20000;-82
2023/12/01 09:12:55;;;;;;;;;;;-1.30;99.90;;;;;;5095402;28;20018;-84
2023/12/01 09:15:21;;;;;;;;;;;-1.10;99.90;;;;;;5113154;28;19966;-82
2023/12/01 09:17:46;;;;;;;;;;;-0.90;99.90;;;;;;5113339;28;19980;-82
2023/12/01 09:20:12;;;;;;;;;;;-0.60;99.90;;;;;;5113345;28;19988;-82
2023/12/01 09:22:38;;;;;;;;;;;-0.20;99.90;;;;;;5113358;28;19930;-83
2023/12/01 09:25:03;;;;;;;;;;;0.10;99.90;;;;;;5113310;28;19967;-82
2023/12/01 09:27:29;;;;;;;;;;;0.50;99.90;;;;;;5112778;28;19924;-82
2023/12/01 09:29:55;;;;;;;;;;;0.80;99.90;;;;;;5111960;28;19928;-82
2023/12/01 09:32:20;;;;;;;;;;;0.90;99.90;;;;;;5113019;28;19926;-82
2023/12/01 09:34:46;;;;;;;;;;;1.00;99.90;;;;;;5111760;28;19927;-82
2023/12/01 09:37:12;;;;;;;;;;;1.10;99.90;;;;;;5113166;28;19928;-82
2023/12/01 09:39:38;;;;;;;;;;;1.30;99.90;;;;;;5108968;28;19930;-83
2023/12/01 09:42:05;;;;;;;;;;;1.50;99.90;;;;;;5120070;28;19928;-82
2023/12/01 09:44:32;;;;;;;;;;;1.60;99.90;;;;;;5113117;28;19924;-82
2023/12/01 09:46:59;;;;;;;;;;;1.50;99.90;;;;;;5099321;28;19931;-83
2023/12/01 09:49:24;;;;;;;;;;;1.30;99.90;;;;;;5108262;28;19928;-84
2023/12/01 09:51:50;;;;;;;;;;;0.80;99.90;;;;;;5111406;28;19939;-81
2023/12/01 09:54:17;;;;;;;;;;;0.40;99.90;;;;;;5125708;28;19928;-82
2023/12/01 09:56:42;;;;;;;;;;;0.10;99.90;;;;;;5110042;28;19928;-81
2023/12/01 09:59:08;;;;;;;;;;;-0.20;99.90;;;;;;5113685;28;20006;-81
2023/12/01 10:01:34;;;;;;;;;;;-0.40;99.90;;;;;;5109722;28;19924;-86
2023/12/01 10:03:59;;;;;;;;;;;-0.60;99.90;;;;;;5134345;27;19934;-81
2023/12/01 10:06:26;;;;;;;;;;;-0.70;99.90;;;;;;5112726;28;19928;-81
2023/12/01 10:08:51;;;;;;;;;;;-0.90;99.90;;;;;;5098616;28;19935;-82
2023/12/01 10:11:22;;;;;;;;;;;-1.00;99.90;;;;;;5111367;28;19924;-82
2023/12/01 10:13:51;;;;;;;;;;;-1.10;99.90;;;;;;5112048;28;19924;-82
2023/12/01 10:16:18;;;;;;;;;;;-1.00;99.90;;;;;;5113334;28;19928;-82
2023/12/01 10:18:55;;;;;;;;;;;-1.10;99.90;;;;;;5115806;28;20669;-83
2023/12/01 10:21:20;;;;;;;;;;;-1.10;99.90;;;;;;5144527;27;20566;-82
2023/12/01 10:23:46;;;;;;;;;;;-1.10;99.90;;;;;;5116883;28;19934;-82
2023/12/01 10:26:13;;;;;;;;;;;-1.10;99.90;;;;;;5116579;28;20332;-82
2023/12/01 10:28:40;;;;;;;;;;;-1.10;99.90;;;;;;5111534;28;19942;-82
2023/12/01 10:31:06;;;;;;;;;;;-1.00;99.90;;;;;;5116078;28;20378;-82
2023/12/01 10:33:33;;;;;;;;;;;-1.10;99.90;;;;;;5102357;28;19975;-82
2023/12/01 10:36:09;;;;;;;;;;;-1.00;99.90;;;;;;5116547;28;19934;-82
2023/12/01 10:38:35;;;;;;;;;;;-1.00;99.90;;;;;;5109932;28;19924;-82
2023/12/01 10:41:03;;;;;;;;;;;-1.00;99.90;;;;;;5118446;27;19923;-83
2023/12/01 10:43:29;;;;;;;;;;;-1.10;99.90;;;;;;5099359;28;19931;-82
2023/12/01 10:45:55;;;;;;;;;;;-1.00;99.90;;;;;;5116448;28;19924;-83
2023/12/01 10:48:21;;;;;;;;;;;-1.00;99.90;;;;;;5118786;27;20362;-82
2023/12/01 10:50:47;;;;;;;;;;;-1.00;99.90;;;;;;5118264;27;19927;-82
2023/12/01 10:53:14;;;;;;;;;;;-1.00;99.90;;;;;;5114562;28;19931;-83
2023/12/01 10:55:41;;;;;;;;;;;-1.00;99.90;;;;;;5115140;28;19924;-82
2023/12/01 10:58:08;;;;;;;;;;;-1.00;99.90;;;;;;5116254;28;19934;-82
2023/12/01 11:00:34;;;;;;;;;;;-1.00;99.90;;;;;;5114225;28;19977;-82
2023/12/01 11:03:00;;;;;;;;;;;-1.00;99.90;;;;;;5111378;28;19935;-82
2023/12/01 11:05:30;;;;;;;;;;;-1.00;99.90;;;;;;5114613;28;19924;-82
2023/12/01 11:07:59;;;;;;;;;;;-0.90;99.90;;;;;;5119039;27;19989;-83
2023/12/01 11:10:48;;;;;;;;;;;-0.90;99.90;;;;;;5131065;27;19931;-83
2023/12/01 11:13:16;;;;;;;;;;;-0.90;99.90;;;;;;5089774;28;19924;-82
2023/12/01 11:15:43;;;;;;;;;;;-0.90;99.90;;;;;;5114134;28;19984;-82
2023/12/01 11:18:10;;;;;;;;;;;-0.80;99.90;;;;;;5106341;28;19946;-82
2023/12/01 11:20:36;;;;;;;;;;;-0.80;99.90;;;;;;5114393;28;19979;-82
2023/12/01 11:23:24;;;;;;;;;;;-0.80;99.90;;;;;;5121268;27;20397;-82
2023/12/01 11:25:55;;;;;;;;;;;-0.80;99.90;;;;;;5129617;27;20380;-81
2023/12/01 11:28:35;;;;;;;;;;;-0.80;99.90;;;;;;5120977;27;19923;-81
2023/12/01 11:31:08;;;;;;;;;;;-0.70;99.90;;;;;;5120041;27;20286;-82
2023/12/01 11:33:38;;;;;;;;;;;-0.70;99.90;;;;;;5102281;28;19939;-83
2023/12/01 11:36:19;;;;;;;;;;;-0.60;99.90;;;;;;5115698;27;19932;-83
2023/12/01 11:39:08;;;;;;;;;;;-0.60;99.90;;;;;;5101126;28;19976;-83
2023/12/01 11:41:34;;;;;;;;;;;-0.60;99.90;;;;;;5113005;28;19924;-82
2023/12/01 11:44:07;;;;;;;;;;;-0.60;99.90;;;;;;5126008;27;19928;-83
2023/12/01 11:46:39;;;;;;;;;;;-0.50;99.90;;;;;;5112958;28;19980;-84
2023/12/01 11:49:05;;;;;;;;;;;-0.50;99.90;;;;;;5116458;27;19992;-83
2023/12/01 11:51:31;;;;;;;;;;;-0.50;99.90;;;;;;5121310;27;20414;-86
2023/12/01 11:54:03;;;;;;;;;;;-0.50;99.90;;;;;;5114283;28;19924;-83
2023/12/01 11:56:29;;;;;;;;;;;-0.40;99.90;;;;;;5114687;27;19947;-83
2023/12/01 11:58:55;;;;;;;;;;;-0.30;99.90;;;;;;5112807;27;19923;-84
2023/12/01 12:01:24;;;;;;;;;;;-0.30;99.90;;;;;;5122739;27;19919;-82
2023/12/01 12:03:56;;;;;;;;;;;-0.30;99.90;;;;;;5115863;27;19924;-84
2023/12/01 12:06:23;;;;;;;;;;;-0.20;99.90;;;;;;5116855;27;19927;-82
2023/12/01 12:08:50;;;;;;;;;;;-0.20;99.90;;;;;;5103691;28;20048;-83
2023/12/01 12:11:17;;;;;;;;;;;-0.10;99.90;;;;;;5113098;28;19930;-83
2023/12/01 12:13:43;;;;;;;;;;;-0.10;99.90;;;;;;5113448;28;19931;-83
2023/12/01 12:16:09;;;;;;;;;;;-0.20;99.90;;;;;;5114179;28;20372;-83
2023/12/01 12:18:34;;;;;;;;;;;-0.20;99.90;;;;;;5113902;27;20294;-83
2023/12/01 12:21:04;;;;;;;;;;;-0.10;99.90;;;;;;5110871;27;19932;-84
2023/12/01 12:23:29;;;;;;;;;;;-0.10;99.90;;;;;;5111642;27;19931;-83
2023/12/01 12:26:11;;;;;;;;;;;0.00;99.90;;;;;;5110007;28;19924;-83
2023/12/01 12:28:37;;;;;;;;;;;0.00;99.90;;;;;;5108953;28;19924;-83
2023/12/01 12:31:04;;;;;;;;;;;0.00;99.90;;;;;;5113884;28;20006;-88
2023/12/01 12:33:29;;;;;;;;;;;0.10;99.90;;;;;;5114099;28;19927;-83
2023/12/01 12:35:55;;;;;;;;;;;0.20;99.90;;;;;;5114220;28;19924;-83
2023/12/01 12:38:21;;;;;;;;;;;0.40;99.90;;;;;;5113932;28;19924;-83
2023/12/01 12:40:46;;;;;;;;;;;0.50;99.90;;;;;;5113586;28;20294;-83
2023/12/01 12:43:12;;;;;;;;;;;0.70;99.90;;;;;;5113884;28;19931;-83
2023/12/01 12:45:37;;;;;;;;;;;0.80;99.90;;;;;;5113796;28;19928;-83
2023/12/01 12:48:07;;;;;;;;;;;0.90;99.90;;;;;;5113952;28;20378;-82
2023/12/01 12:50:38;;;;;;;;;;;0.80;99.90;;;;;;5112569;27;20026;-83
2023/12/01 12:53:03;;;;;;;;;;;0.60;99.90;;;;;;5120210;27;19924;-83
2023/12/01 12:55:29;;;;;;;;;;;0.60;99.90;;;;;;5129739;27;20017;-83
2023/12/01 12:57:54;;;;;;;;;;;0.40;99.90;;;;;;5127126;27;20405;-84
2023/12/01 13:00:20;;;;;;;;;;;0.40;99.90;;;;;;5116204;27;19931;-83
2023/12/01 13:02:45;;;;;;;;;;;0.20;99.90;;;;;;5113115;27;19923;-83
2023/12/01 13:05:11;;;;;;;;;;;0.10;99.90;;;;;;5114460;27;20014;-85
2023/12/01 13:07:36;;;;;;;;;;;0.00;99.90;;;;;;5121180;27;19939;-83
2023/12/01 13:10:02;;;;;;;;;;;-0.20;99.90;;;;;;5116361;27;19927;-83
2023/12/01 13:12:28;;;;;;;;;;;-0.20;99.90;;;;;;5118474;27;20014;-83
2023/12/01 13:14:53;;;;;;;;;;;-0.30;99.90;;;;;;5118517;27;19980;-82
2023/12/01 13:17:21;;;;;;;;;;;-0.30;99.90;;;;;;5113372;27;20393;-82
2023/12/01 13:19:48;;;;;;;;;;;-0.40;99.90;;;;;;5125996;27;19924;-87
2023/12/01 13:22:14;;;;;;;;;;;-0.30;99.90;;;;;;5113308;28;19931;-84
2023/12/01 13:24:40;;;;;;;;;;;-0.30;99.90;;;;;;5113713;27;19923;-82
2023/12/01 13:27:05;;;;;;;;;;;-0.30;99.90;;;;;;5113157;27;19931;-83
2023/12/01 13:29:31;;;;;;;;;;;-0.40;99.90;;;;;;5117382;27;19934;-83
2023/12/01 13:31:57;;;;;;;;;;;-0.40;99.90;;;;;;5120316;27;19932;-83
2023/12/01 13:34:23;;;;;;;;;;;-0.40;99.90;;;;;;5113917;28;19931;-84
2023/12/01 13:36:49;;;;;;;;;;;-0.40;99.90;;;;;;5113783;27;19924;-82
2023/12/01 13:39:19;;;;;;;;;;;-0.40;99.90;;;;;;5112954;27;19928;-86
2023/12/01 13:41:44;;;;;;;;;;;-0.40;99.90;;;;;;5113660;27;19973;-86
2023/12/01 13:44:12;;;;;;;;;;;-0.30;99.90;;;;;;5115728;28;19951;-84
2023/12/01 13:46:39;;;;;;;;;;;-0.20;99.90;;;;;;5115655;28;19968;-83
2023/12/01 13:49:04;;;;;;;;;;;-0.30;99.90;;;;;;5113944;28;19930;-83
2023/12/01 13:51:30;;;;;;;;;;;-0.30;99.90;;;;;;5112939;28;19923;-86
2023/12/01 13:53:56;;;;;;;;;;;-0.30;99.90;;;;;;5117578;28;19924;-83
2023/12/01 13:56:21;;;;;;;;;;;-0.30;99.90;;;;;;5116216;28;20382;-83
2023/12/01 13:58:47;;;;;;;;;;;-0.30;99.90;;;;;;5110469;27;20298;-83
2023/12/01 14:01:14;;;;;;;;;;;-0.30;99.90;;;;;;5124554;27;19924;-84
2023/12/01 14:03:39;;;;;;;;;;;-0.30;99.90;;;;;;5132491;27;19924;-83
2023/12/01 14:06:05;;;;;;;;;;;-0.30;99.90;;;;;;5146806;27;19931;-84
2023/12/01 14:08:30;;;;;;;;;;;-0.30;99.90;;;;;;5112882;27;20014;-82
2023/12/01 14:10:56;;;;;;;;;;;-0.30;99.90;;;;;;5115310;27;19946;-83
2023/12/01 14:13:22;;;;;;;;;;;-0.30;99.90;;;;;;5120047;27;20372;-82
2023/12/01 14:15:47;;;;;;;;;;;-0.30;99.90;;;;;;5117367;27;19931;-83
2023/12/01 14:18:13;;;;;;;;;;;-0.20;99.90;;;;;;5115830;27;19924;-83